Terminal Aerodrome Forecast
Issued by NWS Shreveport, LA

Home | Current Version | Previous Version | Text Only | Print | Product List | Glossary On
Versions: 1 2 3 4 5 6 7 8 9 10 11 12 13 14 15 16 17 18 19 20 21 22 23
000
FTUS44 KSHV 250500
TAFSHV
TAF
KSHV 250520Z 2506/2606 32005KT P6SM SKC
     FM250800 VRB04KT P6SM SCT250
     FM251500 03008KT P6SM FEW250
     FM252100 12008KT P6SM FEW250
     FM260100 12004KT P6SM FEW250=

USA.gov is the U.S. government's official web portal to all federal, state and local government web resources and services.